Time;durP1;ratioP1;P1;durP2;ratioP2;P2;SDS_P1;SDS_P2;PMS_P1;PMS_P2;Temp;Humidity;BMP_temperature;BMP_pressure;BME280_temperature;BME280_humidity;BME280_pressure;Samples;Min_cycle;Max_cycle;Signal;HPM_P1;HPM_P2
2024/02/13 00:01:09;;;;;;;0.10;0.10;;;;;;;6.25;72.28;101470.44;5040303;28;20483;-81
2024/02/13 00:03:36;;;;;;;0.10;0.10;;;;;;;6.21;72.33;101464.25;5043088;28;20032;-81
2024/02/13 00:06:02;;;;;;;0.20;0.20;;;;;;;6.23;71.96;101472.16;5043358;28;20112;-80
2024/02/13 00:08:30;;;;;;;0.13;0.13;;;;;;;6.17;72.42;101467.75;5044082;28;20077;-80
2024/02/13 00:10:56;;;;;;;0.10;0.10;;;;;;;6.15;72.34;101459.81;5042873;28;20060;-81
2024/02/13 00:13:22;;;;;;;0.10;0.10;;;;;;;6.16;72.26;101471.22;5041491;28;20018;-81
2024/02/13 00:15:48;;;;;;;0.13;0.13;;;;;;;6.15;72.30;101464.19;5040787;28;20044;-81
2024/02/13 00:18:15;;;;;;;1.20;1.20;;;;;;;6.09;72.25;101465.06;5041635;28;20053;-81
2024/02/13 00:20:42;;;;;;;0.10;0.10;;;;;;;6.07;72.75;101465.88;5042158;28;20022;-80
2024/02/13 00:23:08;;;;;;;0.10;0.10;;;;;;;6.10;72.47;101466.78;5041549;28;20032;-79
2024/02/13 00:25:34;;;;;;;0.10;0.10;;;;;;;6.13;72.67;101472.09;5041777;28;20068;-79
2024/02/13 00:28:01;;;;;;;0.90;0.90;;;;;;;6.10;72.54;101472.03;5041110;28;20025;-80
2024/02/13 00:30:27;;;;;;;0.10;0.10;;;;;;;6.08;73.01;101476.44;5042005;28;20033;-81
2024/02/13 00:32:53;;;;;;;1.05;1.00;;;;;;;6.11;73.04;101472.94;5041378;28;20025;-80
2024/02/13 00:35:20;;;;;;;0.10;0.10;;;;;;;6.09;73.52;101480.84;5037053;28;20032;-79
2024/02/13 00:37:46;;;;;;;0.10;0.10;;;;;;;6.19;73.16;101484.41;5036667;28;20448;-79
2024/02/13 00:40:13;;;;;;;0.17;0.17;;;;;;;6.14;73.00;101484.38;5036386;28;20027;-79
2024/02/13 00:42:40;;;;;;;2.00;1.90;;;;;;;6.14;72.87;101476.50;5036986;28;20032;-78
2024/02/13 00:45:10;;;;;;;0.10;0.10;;;;;;;6.19;72.97;101484.41;5035211;28;20056;-79
2024/02/13 00:47:40;;;;;;;0.10;0.10;;;;;;;6.15;73.30;101491.38;5037190;28;20064;-79
2024/02/13 00:50:08;;;;;;;2.75;1.08;;;;;;;6.22;73.06;101492.34;5037755;28;20083;-78
2024/02/13 00:52:39;;;;;;;2.10;1.38;;;;;;;6.22;73.26;101491.44;5038376;28;20033;-78
2024/02/13 00:55:07;;;;;;;0.20;0.20;;;;;;;6.26;73.12;101493.25;5037204;28;20036;-78
2024/02/13 00:57:34;;;;;;;0.10;0.10;;;;;;;6.25;73.18;101502.88;5040814;28;20067;-79
2024/02/13 01:00:01;;;;;;;0.30;0.30;;;;;;;6.23;73.25;101503.72;5043439;28;20025;-78
2024/02/13 01:02:27;;;;;;;0.20;0.20;;;;;;;6.29;72.83;101503.78;5046698;28;20036;-78
2024/02/13 01:04:53;;;;;;;0.10;0.10;;;;;;;6.26;72.94;101509.03;5044768;28;20037;-77
2024/02/13 01:07:19;;;;;;;0.35;0.35;;;;;;;6.24;73.36;101513.41;5045510;28;20017;-78
2024/02/13 01:09:45;;;;;;;0.47;0.47;;;;;;;6.26;73.78;101514.31;5047391;28;20032;-79
2024/02/13 01:12:12;;;;;;;0.20;0.20;;;;;;;6.29;73.50;101509.94;5049197;28;20034;-80
2024/02/13 01:14:38;;;;;;;0.10;0.10;;;;;;;6.28;73.27;101512.53;5048251;28;20021;-80
2024/02/13 01:17:05;;;;;;;0.22;0.22;;;;;;;6.33;73.49;101505.59;5047357;28;20068;-80
2024/02/13 01:19:31;;;;;;;0.13;0.13;;;;;;;6.31;73.25;101517.84;5050809;28;20472;-79
2024/02/13 01:21:57;;;;;;;0.10;0.10;;;;;;;6.32;73.34;101519.63;5051101;28;20029;-80
2024/02/13 01:24:26;;;;;;;0.15;0.15;;;;;;;6.33;73.71;101510.84;5053966;28;20029;-80
2024/02/13 01:26:53;;;;;;;0.20;0.20;;;;;;;6.34;73.77;101512.59;5052651;28;20104;-80
2024/02/13 01:29:20;;;;;;;0.95;0.95;;;;;;;6.35;73.53;101513.50;5051288;28;20025;-80
2024/02/13 01:31:47;;;;;;;0.20;0.20;;;;;;;6.31;73.86;101521.34;5050721;28;20029;-79
2024/02/13 01:34:14;;;;;;;0.10;0.10;;;;;;;6.38;73.80;101517.03;5049355;28;20072;-80
2024/02/13 01:36:40;;;;;;;0.20;0.20;;;;;;;6.35;73.71;101521.38;5051414;28;20057;-80
2024/02/13 01:39:06;;;;;;;0.10;0.10;;;;;;;6.35;74.01;101519.63;5049765;28;20063;-78
2024/02/13 01:41:33;;;;;;;0.20;0.20;;;;;;;6.40;74.00;101523.19;5050791;28;20025;-80
2024/02/13 01:43:59;;;;;;;0.28;0.28;;;;;;;6.38;73.75;101514.41;5046675;28;20029;-80
2024/02/13 01:46:28;;;;;;;0.63;0.63;;;;;;;6.43;73.47;101512.69;5039806;28;20021;-79
2024/02/13 01:48:58;;;;;;;0.10;0.10;;;;;;;6.40;73.92;101512.66;5034207;28;20041;-80
2024/02/13 01:51:27;;;;;;;0.20;0.20;;;;;;;6.40;74.28;101506.50;5050942;28;20029;-81
2024/02/13 01:53:59;;;;;;;0.10;0.10;;;;;;;6.46;73.65;101511.81;5050183;28;20029;-81
2024/02/13 01:56:27;;;;;;;0.10;0.10;;;;;;;6.40;74.13;101511.78;5049571;28;20021;-80
2024/02/13 01:58:53;;;;;;;0.13;0.13;;;;;;;6.45;73.77;101523.22;5048624;28;20140;-80
2024/02/13 02:01:20;;;;;;;0.10;0.10;;;;;;;6.43;74.04;101523.22;5045331;28;20029;-79
2024/02/13 02:03:48;;;;;;;0.10;0.10;;;;;;;6.45;74.10;101515.31;5041937;28;20021;-79
2024/02/13 02:06:16;;;;;;;0.35;0.35;;;;;;;6.42;74.67;101518.81;5042782;28;20021;-80
2024/02/13 02:08:44;;;;;;;0.80;0.80;;;;;;;6.43;74.22;101515.31;5041581;28;20018;-79
2024/02/13 02:11:11;;;;;;;0.10;0.10;;;;;;;6.48;74.04;101520.63;5042888;28;20558;-79
2024/02/13 02:13:37;;;;;;;0.25;0.25;;;;;;;6.45;74.09;101510.94;5044779;28;20087;-80
2024/02/13 02:16:06;;;;;;;0.10;0.10;;;;;;;6.47;74.68;101517.09;5046706;28;20029;-79
2024/02/13 02:18:33;;;;;;;0.10;0.10;;;;;;;6.51;73.95;101522.41;5047543;28;20033;-80
2024/02/13 02:20:59;;;;;;;0.75;0.75;;;;;;;6.51;74.51;101525.03;5046870;28;20061;-80
2024/02/13 02:23:26;;;;;;;0.10;0.10;;;;;;;6.53;74.57;101521.53;5046364;28;20025;-79
2024/02/13 02:25:52;;;;;;;0.13;0.13;;;;;;;6.47;74.66;101524.13;5043365;28;20025;-80
2024/02/13 02:28:19;;;;;;;0.10;0.10;;;;;;;6.54;74.11;101519.78;5043790;28;20030;-80
2024/02/13 02:30:46;;;;;;;0.77;0.45;;;;;;;6.56;73.87;101524.19;5043858;28;20033;-80
2024/02/13 02:33:13;;;;;;;0.60;0.60;;;;;;;6.57;74.22;101530.34;5045758;28;20037;-80
2024/02/13 02:35:41;;;;;;;0.20;0.20;;;;;;;6.58;74.28;101526.81;5045568;28;20030;-79
2024/02/13 02:38:09;;;;;;;0.10;0.10;;;;;;;6.57;74.13;101525.94;5046493;28;20033;-79
2024/02/13 02:40:37;;;;;;;0.20;0.20;;;;;;;6.62;73.96;101520.72;5046592;28;20497;-79
2024/02/13 02:43:04;;;;;;;0.25;0.25;;;;;;;6.58;74.26;101524.19;5046173;28;20095;-79
2024/02/13 02:45:30;;;;;;;0.10;0.10;;;;;;;6.61;73.94;101522.47;5044967;28;20030;-81
2024/02/13 02:47:57;;;;;;;0.25;0.25;;;;;;;6.59;74.24;101525.94;5045555;28;20087;-81
2024/02/13 02:50:23;;;;;;;0.20;0.20;;;;;;;6.59;74.09;101533.84;5043808;28;20033;-81
2024/02/13 02:52:51;;;;;;;0.22;0.22;;;;;;;6.61;73.44;101542.66;5042087;28;20033;-80
2024/02/13 02:55:18;;;;;;;0.77;0.77;;;;;;;6.56;73.87;101544.38;5037893;28;21833;-79
2024/02/13 02:57:45;;;;;;;0.20;0.20;;;;;;;6.55;73.85;101535.56;5035974;28;20032;-79
2024/02/13 03:00:14;;;;;;;0.10;0.10;;;;;;;6.58;73.62;101539.97;5036129;28;20026;-79
2024/02/13 03:02:41;;;;;;;0.10;0.10;;;;;;;6.59;73.95;101541.75;5036806;28;20014;-79
2024/02/13 03:05:09;;;;;;;0.80;0.80;;;;;;;6.58;73.64;101537.34;5037214;28;20030;-79
2024/02/13 03:07:35;;;;;;;0.30;0.30;;;;;;;6.51;73.56;101532.94;5036885;28;20029;-79
2024/02/13 03:10:02;;;;;;;0.20;0.20;;;;;;;6.57;73.54;101540.88;5041008;28;20041;-81
2024/02/13 03:12:29;;;;;;;0.25;0.25;;;;;;;6.54;73.51;101546.09;5045551;28;20025;-80
2024/02/13 03:14:56;;;;;;;0.10;0.10;;;;;;;6.51;73.62;101538.19;5039090;28;20040;-80
2024/02/13 03:17:22;;;;;;;0.10;0.10;;;;;;;6.50;73.38;101545.19;5039487;28;20030;-80
2024/02/13 03:19:49;;;;;;;0.82;0.82;;;;;;;6.48;73.17;101541.69;5039441;28;20033;-81
2024/02/13 03:22:17;;;;;;;0.20;0.20;;;;;;;6.41;73.49;101534.59;5039070;28;20025;-80
2024/02/13 03:24:43;;;;;;;0.20;0.20;;;;;;;6.38;73.18;101545.09;5039059;28;20025;-79
2024/02/13 03:27:10;;;;;;;0.20;0.20;;;;;;;6.35;73.19;101540.69;5032149;28;20022;-80
2024/02/13 03:29:37;;;;;;;0.63;0.63;;;;;;;6.30;73.38;101538.00;5042758;28;20049;-81
2024/02/13 03:32:04;;;;;;;0.20;0.20;;;;;;;6.29;73.42;101538.91;5048121;28;20037;-80
2024/02/13 03:34:31;;;;;;;0.30;0.30;;;;;;;6.27;73.51;101537.13;5048376;28;20142;-80
2024/02/13 03:36:58;;;;;;;0.70;0.70;;;;;;;6.32;73.02;101536.28;5047569;28;20128;-81
2024/02/13 03:39:25;;;;;;;0.40;0.40;;;;;;;6.20;73.30;101525.63;5047726;28;20120;-79
2024/02/13 03:41:51;;;;;;;0.20;0.20;;;;;;;6.26;73.25;101527.47;5049386;28;20113;-79
2024/02/13 03:44:17;;;;;;;1.67;0.65;;;;;;;6.23;73.58;101530.03;5044310;28;20033;-80
2024/02/13 03:46:44;;;;;;;0.73;0.73;;;;;;;6.24;73.02;101537.97;5047931;28;20036;-79
2024/02/13 03:49:10;;;;;;;1.25;1.00;;;;;;;6.26;72.98;101527.47;5048913;28;20065;-79
2024/02/13 03:51:38;;;;;;;0.10;0.10;;;;;;;6.21;73.53;101524.78;5048587;28;20030;-79
2024/02/13 03:54:07;;;;;;;0.20;0.20;;;;;;;6.20;73.45;101530.03;5050056;28;20120;-78
2024/02/13 03:56:34;;;;;;;0.20;0.20;;;;;;;6.24;73.23;101526.56;5052876;28;20040;-79
2024/02/13 03:59:01;;;;;;;0.10;0.10;;;;;;;6.20;72.68;101537.94;5053863;28;20048;-79
2024/02/13 04:01:28;;;;;;;0.10;0.10;;;;;;;6.18;73.35;101540.56;5036598;28;20501;-80
2024/02/13 04:03:54;;;;;;;0.10;0.10;;;;;;;6.19;73.29;101538.78;5038269;28;20029;-79
2024/02/13 04:06:21;;;;;;;0.17;0.17;;;;;;;6.20;73.01;101541.44;5043865;28;20018;-80
2024/02/13 04:08:48;;;;;;;0.20;0.20;;;;;;;6.19;73.17;101546.69;5049225;28;20029;-79
2024/02/13 04:11:16;;;;;;;0.47;0.47;;;;;;;6.21;72.75;101550.22;5048832;28;20057;-79
2024/02/13 04:13:42;;;;;;;0.10;0.10;;;;;;;6.19;72.88;101544.91;5046148;28;20025;-79
2024/02/13 04:16:10;;;;;;;0.10;0.10;;;;;;;6.23;72.64;101551.09;5046153;28;20029;-80
2024/02/13 04:18:37;;;;;;;0.20;0.20;;;;;;;6.24;72.62;101542.34;5048941;28;20026;-80
2024/02/13 04:21:04;;;;;;;0.17;0.17;;;;;;;6.22;73.41;101544.97;5049842;28;20037;-79
2024/02/13 04:23:30;;;;;;;2.65;1.27;;;;;;;6.17;73.34;101556.31;5047000;28;20025;-79
2024/02/13 04:25:57;;;;;;;0.10;0.10;;;;;;;6.20;73.02;101556.34;5046330;28;20060;-80
2024/02/13 04:28:23;;;;;;;0.10;0.10;;;;;;;6.25;73.02;101546.75;5045618;28;20160;-81
2024/02/13 04:30:49;;;;;;;0.10;0.10;;;;;;;6.26;73.02;101548.50;5044850;28;20037;-80
2024/02/13 04:33:16;;;;;;;0.10;0.10;;;;;;;6.25;73.08;101552.00;5045867;28;20055;-79
2024/02/13 04:35:42;;;;;;;0.40;0.40;;;;;;;6.25;73.24;101557.28;5048054;28;20044;-79
2024/02/13 04:38:09;;;;;;;0.20;0.20;;;;;;;6.28;73.43;101550.28;5048203;28;20100;-80
2024/02/13 04:40:36;;;;;;;0.30;0.30;;;;;;;6.25;73.18;101552.00;5046893;28;20029;-81
2024/02/13 04:43:02;;;;;;;0.17;0.17;;;;;;;6.31;73.22;101557.31;5046536;28;20018;-80
2024/02/13 04:45:29;;;;;;;0.20;0.20;;;;;;;6.30;73.40;101560.81;5044864;28;20026;-81
2024/02/13 04:47:56;;;;;;;0.20;0.20;;;;;;;6.25;73.10;101554.63;5046439;28;20481;-80
2024/02/13 04:50:23;;;;;;;0.10;0.10;;;;;;;6.28;73.40;101570.44;5047252;28;20386;-79
2024/02/13 04:52:50;;;;;;;0.10;0.10;;;;;;;6.34;73.28;101554.72;5048809;28;20030;-80
2024/02/13 04:55:16;;;;;;;0.10;0.10;;;;;;;6.31;73.33;101560.81;5046083;28;20075;-81
2024/02/13 04:57:44;;;;;;;0.17;0.17;;;;;;;6.31;73.28;101559.97;5045972;28;20033;-81
2024/02/13 05:00:18;;;;;;;0.20;0.20;;;;;;;6.31;73.28;101565.22;5046745;28;20049;-81
2024/02/13 05:02:46;;;;;;;0.35;0.35;;;;;;;6.28;73.31;101567.81;5045588;28;20029;-79
2024/02/13 05:07:59;;;;;;;0.15;0.15;;;;;;;6.19;73.81;101559.84;5044661;28;20033;-80
2024/02/13 05:10:25;;;;;;;0.32;0.32;;;;;;;6.27;73.39;101556.41;5039066;28;20087;-79
2024/02/13 05:12:53;;;;;;;0.10;0.10;;;;;;;6.19;73.48;101558.06;5037594;28;20021;-79
2024/02/13 05:15:21;;;;;;;0.20;0.20;;;;;;;6.22;73.61;101552.84;5036329;28;20057;-79
2024/02/13 05:17:48;;;;;;;0.17;0.17;;;;;;;6.24;73.55;101563.41;5044836;28;20029;-80
2024/02/13 05:20:14;;;;;;;0.10;0.10;;;;;;;6.17;73.80;101569.47;5038418;28;20029;-80
2024/02/13 05:22:42;;;;;;;0.20;0.20;;;;;;;6.17;74.03;101564.19;5041052;28;20105;-79
2024/02/13 05:25:09;;;;;;;0.20;0.20;;;;;;;6.20;73.66;101573.00;5038315;28;20441;-79
2024/02/13 05:27:35;;;;;;;0.10;0.10;;;;;;;6.22;73.66;101573.00;5039987;28;20026;-80
2024/02/13 05:30:02;;;;;;;0.20;0.20;;;;;;;6.20;73.49;101573.00;5041668;28;20088;-79
2024/02/13 05:32:31;;;;;;;0.10;0.10;;;;;;;6.22;74.01;101566.03;5043827;28;20033;-80
2024/02/13 05:34:57;;;;;;;0.10;0.10;;;;;;;6.16;74.03;101573.84;5042495;28;20501;-80
2024/02/13 05:37:23;;;;;;;0.10;0.10;;;;;;;6.20;73.97;101569.50;5045797;28;20029;-81
2024/02/13 05:39:50;;;;;;;0.30;0.30;;;;;;;6.21;73.71;101568.66;5045561;28;20037;-81
2024/02/13 05:42:19;;;;;;;0.30;0.30;;;;;;;6.18;74.22;101564.25;5049619;28;20038;-82
2024/02/13 05:44:45;;;;;;;0.15;0.15;;;;;;;6.20;74.14;101566.88;5048312;28;20032;-81
2024/02/13 05:47:12;;;;;;;0.43;0.43;;;;;;;6.17;74.16;101562.47;5050731;28;20075;-81
2024/02/13 05:49:38;;;;;;;0.10;0.10;;;;;;;6.20;74.16;101561.63;5047562;28;20033;-81
2024/02/13 05:52:06;;;;;;;0.20;0.20;;;;;;;6.20;74.18;101561.63;5047427;28;20061;-80
2024/02/13 05:54:34;;;;;;;0.20;0.20;;;;;;;6.17;74.51;101561.56;5046932;28;20370;-81
2024/02/13 05:57:00;;;;;;;0.20;0.20;;;;;;;6.19;74.59;101563.34;5048374;28;20428;-79
2024/02/13 05:59:29;;;;;;;0.20;0.20;;;;;;;6.20;74.45;101565.09;5048788;28;20077;-79
2024/02/13 06:01:56;;;;;;;0.20;0.20;;;;;;;6.20;74.57;101566.88;5047215;28;20056;-80
2024/02/13 06:04:23;;;;;;;0.38;0.38;;;;;;;6.23;74.74;101565.16;5049833;28;20022;-81
2024/02/13 06:06:49;;;;;;;0.25;0.25;;;;;;;6.27;74.51;101558.19;5049788;28;20075;-79
2024/02/13 06:09:21;;;;;;;0.10;0.10;;;;;;;6.24;74.45;101564.28;5048838;28;20030;-81
2024/02/13 06:11:48;;;;;;;0.20;0.20;;;;;;;6.27;74.59;101568.69;5047419;28;20096;-79
2024/02/13 06:14:14;;;;;;;0.43;0.43;;;;;;;6.19;75.14;101567.72;5049683;28;20036;-79
2024/02/13 06:16:41;;;;;;;1.08;1.05;;;;;;;6.21;74.66;101564.25;5049888;28;20029;-79
2024/02/13 06:19:07;;;;;;;0.38;0.38;;;;;;;6.27;74.58;101564.31;5047240;28;20053;-78
2024/02/13 06:21:33;;;;;;;0.20;0.20;;;;;;;6.22;75.08;101570.38;5041618;28;20025;-79
2024/02/13 06:23:59;;;;;;;6.50;0.40;;;;;;;6.19;74.81;101559.84;5038778;28;20036;-80
2024/02/13 06:26:25;;;;;;;0.13;0.13;;;;;;;6.16;74.66;101571.22;5043291;28;20037;-79
2024/02/13 06:28:52;;;;;;;0.10;0.10;;;;;;;6.20;74.68;101572.13;5043086;28;20556;-78
2024/02/13 06:31:18;;;;;;;0.15;0.15;;;;;;;6.18;74.76;101579.13;5041824;28;20044;-79
2024/02/13 06:33:44;;;;;;;0.10;0.10;;;;;;;6.20;74.54;101577.41;5039059;28;20500;-80
2024/02/13 06:36:10;;;;;;;0.75;0.75;;;;;;;6.22;74.58;101580.91;5040290;28;20030;-80
2024/02/13 06:38:37;;;;;;;0.65;0.65;;;;;;;6.21;74.67;101581.81;5040371;28;20085;-79
2024/02/13 06:41:05;;;;;;;0.45;0.45;;;;;;;6.14;74.82;101579.09;5040834;28;20021;-80
2024/02/13 06:43:34;;;;;;;0.38;0.38;;;;;;;6.22;74.55;101581.81;5041628;28;20033;-80
2024/02/13 06:46:01;;;;;;;0.70;0.70;;;;;;;6.24;74.34;101584.44;5040408;28;20036;-80
2024/02/13 06:48:27;;;;;;;0.20;0.20;;;;;;;6.14;74.47;101583.47;5040428;28;20037;-80
2024/02/13 06:50:54;;;;;;;0.10;0.10;;;;;;;6.22;74.31;101591.44;5038878;28;20029;-80
2024/02/13 06:53:20;;;;;;;1.15;1.15;;;;;;;6.21;74.15;101594.97;5040064;28;20026;-79
2024/02/13 06:55:46;;;;;;;3.83;1.65;;;;;;;6.25;74.18;101597.63;5039030;28;20029;-81
2024/02/13 06:58:16;;;;;;;0.20;0.20;;;;;;;6.10;74.17;101598.34;5038593;28;20052;-79
2024/02/13 07:00:43;;;;;;;0.25;0.25;;;;;;;6.24;74.00;101603.78;5038793;28;20029;-79
2024/02/13 07:03:09;;;;;;;0.15;0.15;;;;;;;6.16;73.98;101608.06;5037698;28;20396;-79
2024/02/13 07:05:37;;;;;;;0.10;0.10;;;;;;;6.16;73.57;101610.69;5041457;28;20025;-79
2024/02/13 07:08:04;;;;;;;0.17;0.17;;;;;;;6.21;73.65;101616.00;5044970;28;20041;-79
2024/02/13 07:10:30;;;;;;;0.52;0.52;;;;;;;6.22;73.28;101623.91;5042594;28;20025;-78
2024/02/13 07:12:58;;;;;;;0.17;0.17;;;;;;;6.07;74.13;101631.63;5043196;28;20026;-80
2024/02/13 07:15:24;;;;;;;0.10;0.10;;;;;;;6.06;74.36;101630.75;5042749;28;20029;-79
2024/02/13 07:17:51;;;;;;;0.17;0.17;;;;;;;5.96;74.23;101624.47;5045021;28;20057;-79
2024/02/13 07:20:17;;;;;;;0.10;0.10;;;;;;;5.96;74.27;101626.22;5045897;28;20408;-79
2024/02/13 07:22:43;;;;;;;2.60;2.50;;;;;;;6.06;73.93;101627.25;5048456;28;20476;-80
2024/02/13 07:25:10;;;;;;;0.38;0.38;;;;;;;5.90;74.46;101626.16;5047306;28;20085;-79
2024/02/13 07:27:38;;;;;;;0.85;0.85;;;;;;;6.06;74.17;101635.13;5046854;28;20026;-79
2024/02/13 07:30:07;;;;;;;0.55;0.55;;;;;;;6.04;74.05;101628.97;5039133;28;20045;-79
2024/02/13 07:32:34;;;;;;;4.97;1.17;;;;;;;6.04;74.34;101635.09;5036068;28;20022;-78
2024/02/13 07:35:04;;;;;;;0.20;0.20;;;;;;;6.07;74.36;101636.88;5038420;28;20064;-78
2024/02/13 07:37:31;;;;;;;6.05;2.50;;;;;;;6.05;74.33;101636.88;5038449;28;20025;-77
2024/02/13 07:40:01;;;;;;;0.20;0.20;;;;;;;6.08;74.27;101641.28;5039137;28;20037;-77
2024/02/13 07:42:28;;;;;;;0.20;0.20;;;;;;;6.11;74.25;101638.72;5039017;28;20398;-76
2024/02/13 07:44:56;;;;;;;0.82;0.32;;;;;;;6.20;74.15;101651.06;5038991;28;20480;-77
2024/02/13 07:47:22;;;;;;;0.10;0.10;;;;;;;6.13;74.26;101644.84;5041327;28;20029;-77
2024/02/13 07:49:49;;;;;;;0.10;0.10;;;;;;;6.12;74.33;101651.88;5042771;28;20096;-78
2024/02/13 07:52:17;;;;;;;0.17;0.17;;;;;;;6.18;74.33;101650.16;5045129;28;20029;-78
2024/02/13 07:54:44;;;;;;;0.28;0.28;;;;;;;6.23;74.63;101665.16;5043551;28;20168;-78
2024/02/13 07:57:14;;;;;;;0.20;0.20;;;;;;;6.32;74.09;101656.47;5045064;28;20040;-78
2024/02/13 07:59:41;;;;;;;0.63;0.52;;;;;;;6.35;74.24;101659.13;5044387;28;20030;-78
2024/02/13 08:02:09;;;;;;;0.20;0.20;;;;;;;6.39;74.23;101663.59;5044508;28;20025;-78
2024/02/13 08:04:36;;;;;;;0.10;0.10;;;;;;;6.46;74.08;101670.66;5041354;28;20030;-78
2024/02/13 08:07:03;;;;;;;0.10;0.10;;;;;;;6.44;74.05;101668.88;5039457;28;20048;-78
2024/02/13 08:09:29;;;;;;;0.20;0.20;;;;;;;6.52;73.79;101661.03;5044448;28;20106;-79
2024/02/13 08:11:55;;;;;;;0.10;0.10;;;;;;;6.48;74.43;101674.19;5043195;28;20038;-78
2024/02/13 08:14:22;;;;;;;0.10;0.10;;;;;;;6.53;74.18;101670.72;5040408;28;20079;-77
2024/02/13 08:16:49;;;;;;;0.30;0.30;;;;;;;6.57;73.96;101677.78;5041256;28;20071;-80
2024/02/13 08:19:15;;;;;;;0.20;0.20;;;;;;;6.63;74.05;101681.34;5043323;28;20025;-81
2024/02/13 08:21:42;;;;;;;0.10;0.10;;;;;;;6.63;73.69;101680.50;5042415;28;20022;-79
2024/02/13 08:24:09;;;;;;;1.08;1.08;;;;;;;6.64;74.26;101674.31;5036281;28;20086;-78
2024/02/13 08:26:36;;;;;;;0.57;0.57;;;;;;;6.63;73.93;101680.50;5037035;28;20080;-77
2024/02/13 08:29:04;;;;;;;0.10;0.10;;;;;;;6.73;74.14;101684.06;5037345;28;20030;-78
2024/02/13 08:31:30;;;;;;;0.10;0.10;;;;;;;6.84;73.60;101681.53;5041778;28;20093;-79
2024/02/13 08:33:56;;;;;;;0.10;0.10;;;;;;;6.87;73.68;101677.19;5034745;28;20029;-77
2024/02/13 08:36:24;;;;;;;0.20;0.20;;;;;;;6.94;74.25;101670.19;5034873;28;20021;-77
2024/02/13 08:38:51;;;;;;;0.10;0.10;;;;;;;7.02;73.37;101675.56;5033953;28;20116;-77
2024/02/13 08:41:18;;;;;;;0.10;0.10;;;;;;;6.99;73.69;101678.16;5032349;28;20029;-77
2024/02/13 08:43:45;;;;;;;0.20;0.20;;;;;;;7.06;73.54;101682.63;5037762;28;20044;-78
2024/02/13 08:46:13;;;;;;;0.10;0.10;;;;;;;7.13;73.72;101685.31;5036506;28;20036;-77
2024/02/13 08:48:39;;;;;;;0.70;0.68;;;;;;;7.15;73.55;101702.88;5034092;28;20037;-77
2024/02/13 08:51:05;;;;;;;0.20;0.20;;;;;;;7.26;73.42;101698.56;5032910;28;20034;-77
2024/02/13 08:53:33;;;;;;;0.13;0.13;;;;;;;7.37;73.72;101696.91;5039369;28;20048;-78
2024/02/13 08:55:59;;;;;;;0.17;0.17;;;;;;;7.41;73.31;101696.06;5041096;28;20124;-77
2024/02/13 08:58:26;;;;;;;0.10;0.10;;;;;;;7.51;73.22;101696.13;5041075;28;20025;-78
2024/02/13 09:00:52;;;;;;;0.20;0.20;;;;;;;7.60;73.06;101697.06;5041294;28;20026;-77
2024/02/13 09:03:18;;;;;;;0.20;0.20;;;;;;;7.70;72.74;101687.44;5043781;28;20041;-79
2024/02/13 09:05:44;;;;;;;0.20;0.20;;;;;;;7.78;73.50;101691.00;5041658;28;20064;-78
2024/02/13 09:08:10;;;;;;;0.17;0.17;;;;;;;7.82;72.45;101694.53;5041681;28;20051;-77
2024/02/13 09:10:37;;;;;;;1.08;1.08;;;;;;;7.91;72.60;101693.69;5042061;28;20032;-78
2024/02/13 09:13:03;;;;;;;0.17;0.17;;;;;;;7.99;72.43;101683.16;5042802;28;20052;-78
2024/02/13 09:15:30;;;;;;;0.32;0.32;;;;;;;8.09;72.74;101685.84;5041231;28;20041;-79
2024/02/13 09:17:56;;;;;;;0.10;0.10;;;;;;;8.12;72.26;101690.25;5043138;28;20060;-77
2024/02/13 09:20:23;;;;;;;0.20;0.20;;;;;;;8.17;72.61;101695.56;5045522;28;20025;-79
2024/02/13 09:22:50;;;;;;;0.10;0.10;;;;;;;8.24;72.66;101700.88;5052239;28;20025;-79
2024/02/13 09:25:17;;;;;;;0.20;0.20;;;;;;;8.22;71.61;101701.75;5055913;28;20009;-78
2024/02/13 09:27:44;;;;;;;0.10;0.10;;;;;;;8.42;71.17;101699.16;5057597;28;20022;-79
2024/02/13 09:30:11;;;;;;;0.20;0.20;;;;;;;8.49;71.41;101700.97;5057421;28;20040;-78
2024/02/13 09:32:37;;;;;;;0.10;0.10;;;;;;;8.46;71.22;101700.06;5056444;28;20116;-78
2024/02/13 09:35:05;;;;;;;0.10;0.10;;;;;;;8.51;71.02;101690.41;5054717;28;20036;-78
2024/02/13 09:37:31;;;;;;;0.10;0.10;;;;;;;8.55;70.89;101695.72;5055804;28;20093;-78
2024/02/13 09:39:58;;;;;;;2.00;0.65;;;;;;;8.73;71.26;101694.88;5050693;28;20021;-78
2024/02/13 09:42:25;;;;;;;0.43;0.43;;;;;;;8.74;70.15;101688.69;5054342;28;20045;-78
2024/02/13 09:44:52;;;;;;;0.40;0.40;;;;;;;8.79;69.94;101698.41;5048388;28;20018;-78
2024/02/13 09:47:20;;;;;;;0.10;0.10;;;;;;;8.82;70.16;101699.28;5042152;28;20021;-78
2024/02/13 09:49:47;;;;;;;0.10;0.10;;;;;;;8.81;69.60;101704.53;5037752;28;20037;-79
2024/02/13 09:52:16;;;;;;;1.98;0.98;;;;;;;8.91;69.47;101703.69;5047611;28;20025;-79
2024/02/13 09:54:44;;;;;;;0.20;0.20;;;;;;;9.03;69.49;101698.41;5042309;28;20030;-79
2024/02/13 09:57:11;;;;;;;1.30;0.47;;;;;;;9.07;68.67;101689.59;5048959;28;20037;-79
2024/02/13 09:59:37;;;;;;;0.15;0.15;;;;;;;9.20;69.13;101700.16;5048131;28;20077;-78
2024/02/13 10:02:05;;;;;;;0.10;0.10;;;;;;;9.32;68.52;101700.16;5036147;28;20045;-79
2024/02/13 10:04:31;;;;;;;0.10;0.10;;;;;;;9.28;68.24;101694.88;5041474;28;20037;-79
2024/02/13 10:07:01;;;;;;;0.10;0.10;;;;;;;9.28;67.99;101697.50;5045248;28;20033;-79
2024/02/13 10:09:32;;;;;;;0.20;0.20;;;;;;;9.31;67.62;101693.09;5044639;28;20025;-78
2024/02/13 10:12:09;;;;;;;0.10;0.10;;;;;;;9.46;67.72;101697.50;5045552;28;20029;-78
2024/02/13 10:14:36;;;;;;;0.20;0.20;;;;;;;9.36;67.56;101715.13;5044348;28;20049;-79
2024/02/13 10:17:10;;;;;;;2.70;2.53;;;;;;;9.49;67.35;101713.34;5040600;28;20112;-78
2024/02/13 10:19:38;;;;;;;0.17;0.17;;;;;;;9.46;67.29;101723.03;5040538;28;20017;-78
2024/02/13 10:22:06;;;;;;;0.10;0.10;;;;;;;9.52;67.01;101718.66;5034271;28;20032;-78
2024/02/13 10:24:32;;;;;;;0.15;0.15;;;;;;;9.57;66.89;101726.59;5033106;28;20052;-78
2024/02/13 10:26:59;;;;;;;0.10;0.10;;;;;;;9.56;67.15;101724.81;5025987;28;20040;-78
2024/02/13 10:29:26;;;;;;;2.90;2.20;;;;;;;9.60;66.12;101721.28;5038552;28;20072;-78
2024/02/13 10:32:05;;;;;;;0.30;0.30;;;;;;;9.82;66.82;101718.56;5040450;28;20042;-79
2024/02/13 10:34:36;;;;;;;0.10;0.10;;;;;;;9.74;65.63;101729.19;5039722;28;20025;-79
2024/02/13 10:37:07;;;;;;;0.10;0.10;;;;;;;9.90;65.70;101716.78;5043303;28;20033;-79
2024/02/13 10:39:36;;;;;;;0.10;0.10;;;;;;;9.93;65.26;101721.19;5043524;28;20053;-78
2024/02/13 10:42:08;;;;;;;0.10;0.10;;;;;;;10.12;65.28;101725.53;5043504;28;20032;-79
2024/02/13 10:44:43;;;;;;;0.10;0.10;;;;;;;10.12;65.29;101735.22;5033886;28;20105;-79
2024/02/13 10:47:14;;;;;;;0.17;0.17;;;;;;;10.22;65.46;101734.34;5036396;28;20551;-78
2024/02/13 10:49:59;;;;;;;0.30;0.30;;;;;;;10.25;64.18;101731.66;5034795;28;20044;-79
2024/02/13 10:52:28;;;;;;;0.22;0.22;;;;;;;10.34;64.04;101728.09;5030302;28;20026;-78
2024/02/13 10:54:56;;;;;;;8.93;1.67;;;;;;;10.35;64.01;101730.75;5020942;28;20021;-78
2024/02/13 10:57:23;;;;;;;0.17;0.17;;;;;;;10.51;64.31;101733.34;5015766;28;20056;-78
2024/02/13 10:59:50;;;;;;;0.30;0.30;;;;;;;10.49;63.16;101724.50;5035097;28;20440;-78
2024/02/13 11:02:19;;;;;;;0.35;0.35;;;;;;;10.49;62.72;101721.84;5025409;28;20048;-78
2024/02/13 11:04:47;;;;;;;0.20;0.20;;;;;;;10.51;63.11;101728.03;5027171;28;20068;-78
2024/02/13 11:07:14;;;;;;;0.10;0.10;;;;;;;10.58;62.31;101732.41;5032732;28;20135;-79
2024/02/13 11:09:41;;;;;;;0.10;0.10;;;;;;;10.68;61.94;101726.16;5030307;28;20048;-78
2024/02/13 11:12:09;;;;;;;6.50;0.85;;;;;;;10.79;62.85;101733.16;5034144;28;20137;-78
2024/02/13 11:14:36;;;;;;;0.10;0.10;;;;;;;10.81;61.52;101726.97;5037217;28;20087;-78
2024/02/13 11:19:40;;;;;;;0.10;0.10;;;;;;;11.11;62.27;101724.97;5073342;27;1936637;-77
2024/02/13 11:22:08;;;;;;;0.10;0.10;;;;;;;11.27;60.48;101728.38;5134601;27;20032;-77
2024/02/13 11:24:51;;;;;;;0.13;0.13;;;;;;;11.38;59.69;101730.94;5132859;27;20043;-77
2024/02/13 11:27:26;;;;;;;0.52;0.52;;;;;;;11.37;59.08;101715.91;5121437;28;20023;-77
2024/02/13 11:30:02;;;;;;;0.20;0.20;;;;;;;11.44;59.04;101728.25;5117311;28;20024;-77
2024/02/13 11:32:35;;;;;;;0.10;0.10;;;;;;;11.43;58.61;101721.16;5114746;28;20059;-77
2024/02/13 11:35:07;;;;;;;0.15;0.15;;;;;;;11.44;59.21;101719.38;5115566;28;20568;-76
2024/02/13 11:37:36;;;;;;;0.10;0.10;;;;;;;11.58;58.45;101714.81;5112440;28;20051;-79